Davenport, IA

11:52 PM CDT on August 30, 2016 (GMT -0500)
East Central Davenport | | Change Station
Active Advisory: Flood Watch Active Notice: Local Storm Report

Elev 692 ft 41.54 °N, 90.55 °W | Updated 3 seconds ago

Clear
Clear
72.9 °F
Feels Like 72.9 °F
N
3.5
Wind Variable Wind from SW
Gusts 3.5 mph

Today
High -- | Low -- °F
--% Chance of Precip.
Yesterday
High -- | Low -- °F
Precip. -- in
Pressure 30.08 in
Visibility 9.0 miles
Clouds Clear
Dew Point 72 °F
Humidity 98%
Rainfall 0.00 in
Snow Depth Not available.
6:26 AM 7:37 PM
Waning Crescent, 1% visible
METAR KDVN 310352Z AUTO 00000KT 9SM CLR 22/21 A3009 RMK AO2 SLP184 T02170211
Pressure 30.08 in
Visibility 9.0 miles
Clouds Clear
Dew Point 72 °F
Humidity 98%
Rainfall 0.00 in
Snow Depth Not available.
6:26 AM 7:37 PM
Waning Crescent, 1% visible
METAR KDVN 310352Z AUTO 00000KT 9SM CLR 22/21 A3009 RMK AO2 SLP184 T02170211

10-Day Weather Forecast

Almanac

Astronomy

Aug. 30, 2016 Rise Set
Actual Time
Civil Twilight
Nautical Twilight
Astronomical Twilight
Moon
Length of Visible Light
Length of Day
Tomorrow will be .
, % of the Moon is Illuminated

Today's Extremes

State Highs State Lows

Community

WunderPhotos

Upload Photos

1,936,039 photos uploaded!

WunderBlog® & News

Nearby

Air Quality

  Air Quality AQ Index Pollutant
Not available.

Snow Depth

Station Depth Elevation

Earthquake Activity

City Distance Mag. Time & Date
Minimum magnitude displayed is 2.5.

Coastal Water Temperatures

Place Temperature

Stations

Nearby Weather Stations

Station Location Temp. Windchill Dew Point Humidity Wind Precip. Elev Updated Type
                   

Watches & Warnings

Flood Watch
Issued: 8:11 PM CDT Aug. 30, 2016 – National Weather Service

The Flood Watch continues for
the Wapsipinicon River near De Witt 4s
* until Sunday morning.
* At 7:30 PM Tuesday the stage was 9.4 feet.
* Flood stage is 11.0 feet.
* Minor flooding is possible.
* Forecast... rise above flood stage Saturday morning... and continue
rising to 11.2 feet Saturday evening. Fall below flood stage
Sunday morning.
* This is based on runoff from recent heavy rainfall. There remains
limited confidence that the river will reach or exceed flood stage.
Forecasts may change so monitor for updated information.


Lat... Lon 4200 9090 4185 9090 4171 9080 4169 9035
      4177 9033 4184 9071


14